Lampasas, TX

9:16 AM CST on December 29, 2014 (GMT -0600)
Lampasas | Change Station
CLOSE
Current Station
Airport
Location: Lampasas,
Elevation: 1214 ft
Nearby Weather Stations
Active Advisory: Special Statement

Elev 1214 ft 31.11 °N, 98.20 °W | Updated 21 minutes ago

Clear
Clear
36 °F
Feels Like 36 °F
N
0
Wind Variable Wind from North

Today
High -- | Low -- °F
--% Chance of Precip.
Yesterday
High -- | Low -- °F
Precip. -- in
7:30 AM 5:39 PM
First Quarter, 59% visible
Pressure 30.12 in
Visibility 10.0 miles
Clouds Clear
Dew Point 33 °F
Humidity 91%
Rainfall 0.00 in
Snow Depth Not available.
UV 1 out of 12
Pollen 7.40 out of 12
Air Quality Not available.
Flu Activity Not available.
METAR KLZZ 291455Z AUTO 00000KT 10SM CLR 02/01 A3012 RMK AO2 T00210007

More Conditions Fewer Conditions

Pressure 30.12 in
Visibility 10.0 miles
Clouds Clear
Dew Point 33 °F
Humidity 91%
Rainfall 0.00 in
Snow Depth Not available.
UV 1 out of 12
Pollen 7.40 out of 12
Air Quality Not available.
Flu Activity Not available.
METAR KLZZ 291455Z AUTO 00000KT 10SM CLR 02/01 A3012 RMK AO2 T00210007

More Conditions Fewer Conditions

Nowcast | as of 8:29 am CST on December 29, 2014

Patchy areas of dense fog or freezing fog will continue through late morning generally along and east of Interstate 45 and south of Interstate 30. Temperatures are expected to rise above freezing quickly with no impacts from any freezing fog expected. Visibilities below a mile in spots are expected. Allow extra time to reach your destination...slow down and use low beams for better visibility. Elsewhere...party sunny conditions are expected. Temperatures are expected to rise through the 40s this morning with southeast winds near 10 mph.

×

10-Day Weather Forecast

Almanac

Astronomy

Dec. 29, 2014 Rise Set
Actual Time
Civil Twilight
Nautical Twilight
Astronomical Twilight
Moon
Length of Visible Light
Length of Day
Tomorrow will be .
, % of the Moon is Illuminated

Today's Extremes

State Highs State Lows

Community

WunderPhotos

Upload Photos

1,781,602 photos uploaded!

WunderBlogs® & News

Nearby

Air Quality

  Air Quality AQ Index Pollutant
Not available.

Snow Depth

Station Depth Elevation

Earthquake Activity

City Distance Mag. Time & Date
Minimum magnitude displayed is 2.5.

Coastal Water Temperatures

Place Temperature

Nearby Weather Stations